createdAt,value
2018-12-01T00:00:43.363Z,77.00
2018-12-01T00:03:12.835Z,76.19
2018-12-01T00:05:42.266Z,77.11
2018-12-01T00:08:11.839Z,76.55
2018-12-01T00:10:41.621Z,76.42
2018-12-01T00:13:10.925Z,76.40
2018-12-01T00:15:40.417Z,75.97
2018-12-01T00:18:10.153Z,76.57
2018-12-01T00:20:40.017Z,76.39
2018-12-01T00:23:09.442Z,76.67
2018-12-01T00:25:38.894Z,76.69
2018-12-01T00:28:08.331Z,76.11
2018-12-01T00:30:37.813Z,76.14
2018-12-01T00:33:07.381Z,75.78
2018-12-01T00:35:36.647Z,76.20
2018-12-01T00:38:06.698Z,76.09
2018-12-01T00:40:35.973Z,76.59
2018-12-01T00:43:05.386Z,76.64
2018-12-01T00:45:34.637Z,77.37
2018-12-01T00:48:04.241Z,77.61
2018-12-01T00:50:33.523Z,77.90
2018-12-01T00:53:03.334Z,77.56
2018-12-01T00:55:32.750Z,77.98
2018-12-01T00:58:02.040Z,78.15
2018-12-01T01:00:31.631Z,78.69
2018-12-01T01:03:01.417Z,78.33
2018-12-01T01:05:31.650Z,78.79
2018-12-01T01:08:01.859Z,79.31
2018-12-01T01:10:34.719Z,79.00
2018-12-01T01:13:03.767Z,79.87
2018-12-01T01:15:33.069Z,80.26
2018-12-01T01:18:02.372Z,80.13
2018-12-01T01:20:31.871Z,80.22
2018-12-01T01:23:07.640Z,79.65
2018-12-01T01:25:37.074Z,79.95
2018-12-01T01:28:07.457Z,80.37
2018-12-01T01:30:48.874Z,81.47
2018-12-01T01:33:27.713Z,81.53
2018-12-01T01:35:57.015Z,81.66
2018-12-01T01:38:26.496Z,81.84
2018-12-01T01:41:01.667Z,81.37
2018-12-01T01:43:31.021Z,81.55
2018-12-01T01:46:00.822Z,81.32
2018-12-01T01:48:30.413Z,81.11
2018-12-01T01:50:59.717Z,81.61
2018-12-01T01:53:29.012Z,80.64
2018-12-01T01:55:58.353Z,81.21
2018-12-01T01:58:27.654Z,81.85
2018-12-01T02:00:56.913Z,82.59
2018-12-01T02:03:26.229Z,82.40
2018-12-01T02:05:55.528Z,81.95
2018-12-01T02:08:24.896Z,82.59
2018-12-01T02:10:54.841Z,82.48
2018-12-01T02:13:24.133Z,82.36
2018-12-01T02:15:53.450Z,82.65
2018-12-01T02:18:23.468Z,82.13
2018-12-01T02:20:52.779Z,81.98
2018-12-01T02:23:22.064Z,82.50
2018-12-01T02:25:51.506Z,82.39
2018-12-01T02:28:20.843Z,82.15
2018-12-01T02:30:50.133Z,83.68
2018-12-01T02:33:19.525Z,83.34
2018-12-01T02:35:49.171Z,83.02
2018-12-01T02:38:18.460Z,82.60
2018-12-01T02:40:47.855Z,82.78
2018-12-01T02:43:17.094Z,83.74
2018-12-01T02:46:03.377Z,84.33
2018-12-01T02:48:33.034Z,85.38
2018-12-01T02:51:02.387Z,83.93
2018-12-01T02:53:31.773Z,84.18
2018-12-01T02:56:01.069Z,83.62
2018-12-01T02:58:30.373Z,83.69
2018-12-01T03:00:59.749Z,83.64
2018-12-01T03:03:29.077Z,83.54
2018-12-01T03:05:58.381Z,82.91
2018-12-01T03:08:27.673Z,82.64
2018-12-01T03:10:56.993Z,82.56
2018-12-01T03:13:26.464Z,82.83
2018-12-01T03:15:56.248Z,83.69
2018-12-01T03:18:25.518Z,84.16
2018-12-01T03:20:54.856Z,84.69
2018-12-01T03:23:24.147Z,84.02
2018-12-01T03:25:56.632Z,83.33
2018-12-01T03:28:26.045Z,84.01
2018-12-01T03:30:55.297Z,83.36
2018-12-01T03:33:24.560Z,83.61
2018-12-01T03:35:54.168Z,83.77
2018-12-01T03:38:23.815Z,83.74
2018-12-01T03:40:53.283Z,83.37
2018-12-01T03:43:22.580Z,83.61
2018-12-01T03:45:51.888Z,83.61
2018-12-01T03:48:21.216Z,83.85
2018-12-01T03:50:50.518Z,84.98
2018-12-01T03:53:19.798Z,84.67
2018-12-01T03:55:49.080Z,84.50
2018-12-01T03:58:18.497Z,84.23
2018-12-01T04:00:47.750Z,84.04
2018-12-01T04:03:17.019Z,83.06
2018-12-01T04:05:46.420Z,82.82
2018-12-01T04:08:15.679Z,83.16
2018-12-01T04:10:44.941Z,83.34
2018-12-01T04:13:14.229Z,84.06
2018-12-01T04:15:43.700Z,83.26
2018-12-01T04:18:13.130Z,83.11
2018-12-01T04:20:42.549Z,83.35
2018-12-01T04:23:11.935Z,83.74
2018-12-01T04:25:41.200Z,83.02
2018-12-01T04:28:10.507Z,82.59
2018-12-01T04:30:39.749Z,81.94
2018-12-01T04:33:09.007Z,82.05
2018-12-01T04:35:38.285Z,82.75
2018-12-01T04:38:07.967Z,82.25
2018-12-01T04:40:37.601Z,82.32
2018-12-01T04:43:07.174Z,82.22
2018-12-01T04:45:36.438Z,81.35
2018-12-01T04:48:05.915Z,81.39
2018-12-01T04:50:35.212Z,81.44
2018-12-01T04:53:04.464Z,81.47
2018-12-01T04:55:33.910Z,81.71
2018-12-01T04:58:03.213Z,81.70
2018-12-01T05:00:32.530Z,80.69
2018-12-01T05:03:01.847Z,81.03
2018-12-01T05:05:31.262Z,81.56
2018-12-01T05:08:00.549Z,81.81
2018-12-01T05:10:29.879Z,81.64
2018-12-01T05:12:59.139Z,82.70
2018-12-01T05:15:28.492Z,83.07
2018-12-01T05:17:57.766Z,83.85
2018-12-01T05:20:27.185Z,83.78
2018-12-01T05:22:56.473Z,83.59
2018-12-01T05:25:25.776Z,84.11
2018-12-01T05:27:55.268Z,85.39
2018-12-01T05:30:24.595Z,85.49
2018-12-01T05:32:53.846Z,85.41
2018-12-01T05:35:24.776Z,84.50
2018-12-01T05:37:54.029Z,85.39
2018-12-01T05:40:23.373Z,84.30
2018-12-01T05:42:52.724Z,84.13
2018-12-01T05:45:23.447Z,83.13
2018-12-01T05:47:53.610Z,84.53
2018-12-01T05:50:26.737Z,84.59
2018-12-01T05:52:57.495Z,84.50
2018-12-01T05:55:26.912Z,84.06
2018-12-01T05:57:56.181Z,84.24
2018-12-01T06:00:25.539Z,84.14
2018-12-01T06:02:54.850Z,84.36
2018-12-01T06:05:24.095Z,83.88
2018-12-01T06:07:53.880Z,82.55
2018-12-01T06:10:23.705Z,83.73
2018-12-01T06:12:54.113Z,85.31
2018-12-01T06:15:23.504Z,84.17
2018-12-01T06:17:52.769Z,83.84
2018-12-01T06:20:23.410Z,83.21
2018-12-01T06:22:52.782Z,83.75
2018-12-01T06:25:23.686Z,84.10
2018-12-01T06:27:53.398Z,83.70
2018-12-01T06:30:22.730Z,83.80
2018-12-01T06:32:52.937Z,83.35
2018-12-01T06:35:22.232Z,83.96
2018-12-01T06:37:51.498Z,84.13
2018-12-01T06:40:21.866Z,83.74
2018-12-01T06:42:51.688Z,85.38
2018-12-01T06:45:21.136Z,85.28
2018-12-01T06:47:50.430Z,85.38
2018-12-01T06:50:21.877Z,83.78
2018-12-01T06:52:53.347Z,83.26
2018-12-01T06:55:23.840Z,83.70
2018-12-01T06:57:53.154Z,84.50
2018-12-01T07:00:24.215Z,84.40
2018-12-01T07:02:55.225Z,83.96
2018-12-01T07:05:24.576Z,83.20
2018-12-01T07:07:53.957Z,84.69
2018-12-01T07:10:23.940Z,84.77
2018-12-01T07:13:01.823Z,85.12
2018-12-01T07:15:36.738Z,83.42
2018-12-01T07:18:23.059Z,83.59
2018-12-01T07:20:52.322Z,84.63
2018-12-01T07:23:21.583Z,84.58
2018-12-01T07:25:51.189Z,85.96
2018-12-01T07:28:21.463Z,85.69
2018-12-01T07:30:49.789Z,85.55
2018-12-01T07:33:19.042Z,85.29
2018-12-01T07:35:48.319Z,83.93
2018-12-01T07:38:17.595Z,82.75
2018-12-01T07:40:46.896Z,84.14
2018-12-01T07:43:16.157Z,84.05
2018-12-01T07:45:45.487Z,83.07
2018-12-01T07:48:14.994Z,83.30
2018-12-01T07:50:44.227Z,83.54
2018-12-01T07:53:17.438Z,83.33
2018-12-01T07:55:42.852Z,83.30
2018-12-01T07:58:12.140Z,82.79
2018-12-01T08:00:41.486Z,83.24
2018-12-01T08:03:10.774Z,83.26
2018-12-01T08:05:40.201Z,82.12
2018-12-01T08:08:09.518Z,81.63
2018-12-01T08:10:39.232Z,81.93
2018-12-01T08:13:08.517Z,80.81
2018-12-01T08:15:37.843Z,79.84
2018-12-01T08:18:07.125Z,80.51
2018-12-01T08:20:36.438Z,79.76
2018-12-01T08:23:06.136Z,79.46
2018-12-01T08:25:35.437Z,79.19
2018-12-01T08:28:05.262Z,79.08
2018-12-01T08:30:34.801Z,79.21
2018-12-01T08:33:04.580Z,77.86
2018-12-01T08:35:33.873Z,79.01
2018-12-01T08:38:03.173Z,78.50
2018-12-01T08:40:33.735Z,77.92
2018-12-01T08:43:03.081Z,77.93
2018-12-01T08:45:32.402Z,78.36
2018-12-01T08:48:01.708Z,78.08
2018-12-01T08:50:31.050Z,77.29
2018-12-01T08:53:00.314Z,77.84
2018-12-01T08:55:30.162Z,77.01
2018-12-01T08:57:59.457Z,76.07
2018-12-01T09:00:39.414Z,76.63
2018-12-01T09:03:20.756Z,76.08
2018-12-01T09:05:50.093Z,76.41
2018-12-01T09:08:19.345Z,77.49
2018-12-01T09:10:48.639Z,77.06
2018-12-01T09:13:18.265Z,77.31
2018-12-01T09:15:47.572Z,76.40
2018-12-01T09:18:16.855Z,77.36
2018-12-01T09:20:46.162Z,77.24
2018-12-01T09:23:15.437Z,76.48
2018-12-01T09:25:44.742Z,76.32
2018-12-01T09:28:14.026Z,76.41
2018-12-01T09:30:43.620Z,76.94
2018-12-01T09:33:12.913Z,76.52
2018-12-01T09:35:42.689Z,77.07
2018-12-01T09:38:11.996Z,76.02
2018-12-01T09:40:41.493Z,75.77
2018-12-01T09:43:10.926Z,75.36
2018-12-01T09:45:40.207Z,75.44
2018-12-01T09:48:09.662Z,75.49
2018-12-01T09:50:38.970Z,75.43
2018-12-01T09:53:08.586Z,74.26
2018-12-01T09:55:37.966Z,74.62
2018-12-01T09:58:07.678Z,73.16
2018-12-01T10:00:36.973Z,73.50
2018-12-01T10:03:08.219Z,73.48
2018-12-01T10:05:37.563Z,72.51
2018-12-01T10:08:07.755Z,73.78
2018-12-01T10:10:37.132Z,75.42
2018-12-01T10:13:06.500Z,74.77
2018-12-01T10:15:37.389Z,74.35
2018-12-01T10:18:09.416Z,74.00
2018-12-01T10:20:38.900Z,73.22
2018-12-01T10:23:11.901Z,73.65
2018-12-01T10:25:43.489Z,73.12
2018-12-01T10:28:13.058Z,73.00
2018-12-01T10:30:42.394Z,73.37
2018-12-01T10:33:11.756Z,72.78
2018-12-01T10:35:41.244Z,73.25
2018-12-01T10:38:14.031Z,72.80
2018-12-01T10:40:43.361Z,73.67
2018-12-01T10:43:12.664Z,73.75
2018-12-01T10:45:42.017Z,74.29
2018-12-01T10:48:11.432Z,73.63
2018-12-01T10:50:40.885Z,72.84
2018-12-01T10:53:10.193Z,71.39
2018-12-01T10:55:40.000Z,73.02
2018-12-01T10:58:11.362Z,73.76
2018-12-01T11:00:46.557Z,73.51
2018-12-01T11:03:21.361Z,73.56
2018-12-01T11:05:50.849Z,73.79
2018-12-01T11:08:20.194Z,73.39
2018-12-01T11:10:55.081Z,73.83
2018-12-01T11:13:19.412Z,73.87
2018-12-01T11:15:48.718Z,73.35
2018-12-01T11:18:18.044Z,73.73
2018-12-01T11:20:47.364Z,73.96
2018-12-01T11:23:16.646Z,74.29
2018-12-01T11:25:46.995Z,73.97
2018-12-01T11:28:16.326Z,73.02
2018-12-01T11:30:45.632Z,74.75
2018-12-01T11:33:14.967Z,74.81
2018-12-01T11:35:44.401Z,73.59
2018-12-01T11:38:13.724Z,73.97
2018-12-01T11:40:42.983Z,73.09
2018-12-01T11:43:12.331Z,73.12
2018-12-01T11:45:41.668Z,72.51
2018-12-01T11:48:11.087Z,71.26
2018-12-01T11:50:41.488Z,69.91
2018-12-01T11:53:10.808Z,70.24
2018-12-01T11:55:40.106Z,71.30
2018-12-01T11:58:09.517Z,72.20
2018-12-01T12:00:38.838Z,72.28
2018-12-01T12:03:08.161Z,71.24
2018-12-01T12:05:37.573Z,71.43
2018-12-01T12:08:19.378Z,68.87
2018-12-01T12:10:48.799Z,68.69
2018-12-01T12:13:18.198Z,68.80
2018-12-01T12:15:47.484Z,68.81
2018-12-01T12:18:16.976Z,68.81
2018-12-01T12:20:46.382Z,68.14
2018-12-01T12:23:16.815Z,68.18
2018-12-01T12:25:45.081Z,67.93
2018-12-01T12:28:14.466Z,68.51
2018-12-01T12:30:43.939Z,69.41
2018-12-01T12:33:13.314Z,69.21
2018-12-01T12:35:42.622Z,67.76
2018-12-01T12:38:11.933Z,69.17
2018-12-01T12:40:41.385Z,69.44
2018-12-01T12:43:10.724Z,68.89
2018-12-01T12:45:40.105Z,70.31
2018-12-01T12:48:10.356Z,70.21
2018-12-01T12:50:39.669Z,69.83
2018-12-01T12:53:08.945Z,70.94
2018-12-01T12:55:38.290Z,71.48
2018-12-01T12:58:07.759Z,70.97
2018-12-01T13:00:37.174Z,70.89
2018-12-01T13:03:12.581Z,70.28
2018-12-01T13:05:45.573Z,71.43
2018-12-01T13:08:17.788Z,70.64
2018-12-01T13:10:47.607Z,69.38
2018-12-01T13:13:16.902Z,69.45
2018-12-01T13:15:46.249Z,67.62
2018-12-01T13:18:15.932Z,67.36
2018-12-01T13:20:47.360Z,67.23
2018-12-01T13:23:16.686Z,67.74
2018-12-01T13:25:46.082Z,67.98
2018-12-01T13:28:19.335Z,67.71
2018-12-01T13:30:55.781Z,68.04
2018-12-01T13:33:25.596Z,68.80
2018-12-01T13:35:55.129Z,69.64
2018-12-01T13:38:24.661Z,70.25
2018-12-01T13:40:54.197Z,69.88
2018-12-01T13:43:23.507Z,70.52
2018-12-01T13:45:52.835Z,70.24
2018-12-01T13:48:22.205Z,69.63
2018-12-01T13:50:51.522Z,69.53
2018-12-01T13:53:20.832Z,68.82
2018-12-01T13:55:50.195Z,68.82
2018-12-01T13:58:19.524Z,69.71
2018-12-01T14:00:48.824Z,70.31
2018-12-01T14:03:18.365Z,70.42
2018-12-01T14:05:47.716Z,69.73
2018-12-01T14:08:17.044Z,69.30
2018-12-01T14:10:49.509Z,69.78
2018-12-01T14:13:18.828Z,69.81
2018-12-01T14:15:48.214Z,69.97
2018-12-01T14:18:17.542Z,69.86
2018-12-01T14:20:46.836Z,70.49
2018-12-01T14:23:16.112Z,69.27
2018-12-01T14:25:45.623Z,69.41
2018-12-01T14:28:14.904Z,68.76
2018-12-01T14:30:44.221Z,68.97
2018-12-01T14:33:14.145Z,69.45
2018-12-01T14:35:43.444Z,70.57
2018-12-01T14:38:16.757Z,70.43
2018-12-01T14:40:48.908Z,70.30
2018-12-01T14:43:18.711Z,70.45
2018-12-01T14:45:50.562Z,71.02
2018-12-01T14:48:19.941Z,70.67
2018-12-01T14:50:49.251Z,70.99
2018-12-01T14:53:19.437Z,71.24
2018-12-01T14:55:48.754Z,71.16
2018-12-01T14:58:18.111Z,70.68
2018-12-01T15:00:54.327Z,70.87
2018-12-01T15:03:23.841Z,71.08
2018-12-01T15:05:53.141Z,70.73
2018-12-01T15:08:22.465Z,71.01
2018-12-01T15:10:51.933Z,71.61
2018-12-01T15:13:21.263Z,71.54
2018-12-01T15:15:50.583Z,71.67
2018-12-01T15:18:19.853Z,71.34
2018-12-01T15:20:49.127Z,71.75
2018-12-01T15:23:18.812Z,72.89
2018-12-01T15:25:48.100Z,72.97
2018-12-01T15:28:17.358Z,73.07
2018-12-01T15:30:46.759Z,73.58
2018-12-01T15:33:17.137Z,73.44
2018-12-01T15:35:47.972Z,73.29
2018-12-01T15:38:17.370Z,73.57
2018-12-01T15:40:49.924Z,73.37
2018-12-01T15:43:19.374Z,74.57
2018-12-01T15:45:48.684Z,73.94
2018-12-01T15:48:18.018Z,73.83
2018-12-01T15:50:47.318Z,74.02
2018-12-01T15:53:17.076Z,74.05
2018-12-01T15:55:46.375Z,73.74
2018-12-01T15:58:15.749Z,74.57
2018-12-01T16:00:45.323Z,74.41
2018-12-01T16:03:14.954Z,73.80
2018-12-01T16:05:44.238Z,74.27
2018-12-01T16:08:13.547Z,74.06
2018-12-01T16:10:43.135Z,74.24
2018-12-01T16:13:20.202Z,74.83
2018-12-01T16:15:57.175Z,75.22
2018-12-01T16:18:26.443Z,75.22
2018-12-01T16:20:55.791Z,74.49
2018-12-01T16:23:25.503Z,75.28
2018-12-01T16:25:55.138Z,75.82
2018-12-01T16:28:24.410Z,75.86
2018-12-01T16:30:53.768Z,75.66
2018-12-01T16:33:23.337Z,75.99
2018-12-01T16:35:52.957Z,75.77
2018-12-01T16:38:24.926Z,76.73
2018-12-01T16:41:00.762Z,75.85
2018-12-01T16:43:33.309Z,75.94
2018-12-01T16:46:02.747Z,76.17
2018-12-01T16:48:33.153Z,75.82
2018-12-01T16:51:01.437Z,75.58
2018-12-01T16:53:30.852Z,76.05
2018-12-01T16:56:00.233Z,75.41
2018-12-01T16:58:29.551Z,75.10
2018-12-01T17:00:58.975Z,75.37
2018-12-01T17:03:28.264Z,75.50
2018-12-01T17:06:00.124Z,76.33
2018-12-01T17:08:29.409Z,75.36
2018-12-01T17:10:58.728Z,76.02
2018-12-01T17:13:28.034Z,75.89
2018-12-01T17:15:57.370Z,76.38
2018-12-01T17:18:26.654Z,75.89
2018-12-01T17:20:56.003Z,75.88
2018-12-01T17:23:25.415Z,75.59
2018-12-01T17:25:54.735Z,74.96
2018-12-01T17:28:24.590Z,75.30
2018-12-01T17:30:54.042Z,74.60
2018-12-01T17:33:23.307Z,74.96
2018-12-01T17:35:52.655Z,74.25
2018-12-01T17:38:22.878Z,74.01
2018-12-01T17:41:28.174Z,74.89
2018-12-01T17:44:08.339Z,74.69
2018-12-01T17:46:38.264Z,74.82
2018-12-01T17:49:08.048Z,75.05
2018-12-01T17:51:37.354Z,75.04
2018-12-01T17:54:12.962Z,74.70
2018-12-01T17:56:42.217Z,74.60
2018-12-01T17:59:11.478Z,75.36
2018-12-01T18:01:41.426Z,76.01
2018-12-01T18:04:10.702Z,75.72
2018-12-01T18:06:39.991Z,75.36
2018-12-01T18:09:10.413Z,74.37
2018-12-01T18:11:39.928Z,75.29
2018-12-01T18:14:11.082Z,74.55
2018-12-01T18:16:40.830Z,74.84
2018-12-01T18:19:11.119Z,74.08
2018-12-01T18:21:39.781Z,74.17
2018-12-01T18:24:09.644Z,74.47
2018-12-01T18:26:38.946Z,74.66
2018-12-01T18:29:08.279Z,75.40
2018-12-01T18:31:37.647Z,74.64
2018-12-01T18:34:11.077Z,75.92
2018-12-01T18:36:40.571Z,75.51
2018-12-01T18:39:17.621Z,75.51
2018-12-01T18:41:47.462Z,75.60
2018-12-01T18:44:16.768Z,75.60
2018-12-01T18:46:46.104Z,75.99
2018-12-01T18:49:15.441Z,75.43
2018-12-01T18:51:44.741Z,76.45
2018-12-01T18:54:14.351Z,75.90
2018-12-01T18:56:43.685Z,75.48
2018-12-01T18:59:12.973Z,76.00
2018-12-01T19:01:42.348Z,75.56
2018-12-01T19:04:12.248Z,75.77
2018-12-01T19:06:41.538Z,75.27
2018-12-01T19:09:10.949Z,75.07
2018-12-01T19:11:40.266Z,74.68
2018-12-01T19:14:09.522Z,75.37
2018-12-01T19:16:38.883Z,75.10
2018-12-01T19:19:08.578Z,75.05
2018-12-01T19:21:37.959Z,74.45
2018-12-01T19:24:07.271Z,74.64
2018-12-01T19:26:37.047Z,74.76
2018-12-01T19:29:06.876Z,74.62
2018-12-01T19:31:36.216Z,75.06
2018-12-01T19:34:06.100Z,74.96
2018-12-01T19:36:35.500Z,73.54
2018-12-01T19:39:12.218Z,73.56
2018-12-01T19:41:41.506Z,74.47
2018-12-01T19:44:10.895Z,73.65
2018-12-01T19:46:40.972Z,74.17
2018-12-01T19:49:10.098Z,74.33
2018-12-01T19:51:39.399Z,74.46
2018-12-01T19:54:08.740Z,74.38
2018-12-01T19:56:38.024Z,73.60
2018-12-01T19:59:07.313Z,73.29
2018-12-01T20:01:36.631Z,72.63
2018-12-01T20:04:06.267Z,72.15
2018-12-01T20:06:35.542Z,71.80
2018-12-01T20:09:05.838Z,71.41
2018-12-01T20:11:35.250Z,71.38
2018-12-01T20:14:08.426Z,71.71
2018-12-01T20:16:41.295Z,72.53
2018-12-01T20:19:10.935Z,72.31
2018-12-01T20:21:40.201Z,72.10
2018-12-01T20:24:09.870Z,72.07
2018-12-01T20:26:41.903Z,71.63
2018-12-01T20:29:11.233Z,71.92
2018-12-01T20:31:40.505Z,71.79
2018-12-01T20:34:10.061Z,71.81
2018-12-01T20:36:47.875Z,72.00
2018-12-01T20:39:23.368Z,72.14
2018-12-01T20:41:52.673Z,71.36
2018-12-01T20:44:22.337Z,71.54
2018-12-01T20:46:51.921Z,71.89
2018-12-01T20:49:21.356Z,71.66
2018-12-01T20:51:50.730Z,71.85
2018-12-01T20:54:31.613Z,71.73
2018-12-01T20:57:33.868Z,72.34
2018-12-01T21:00:03.938Z,72.37
2018-12-01T21:02:33.363Z,72.08
2018-12-01T21:05:02.728Z,71.49
2018-12-01T21:07:32.347Z,71.33
2018-12-01T21:10:01.754Z,71.74
2018-12-01T21:12:31.145Z,71.27
2018-12-01T21:15:00.661Z,71.46
2018-12-01T21:17:29.981Z,71.78
2018-12-01T21:20:00.193Z,71.63
2018-12-01T21:22:29.670Z,71.84
2018-12-01T21:24:59.053Z,71.31
2018-12-01T21:27:28.525Z,71.61
2018-12-01T21:29:58.083Z,71.59
2018-12-01T21:32:27.571Z,71.68
2018-12-01T21:34:56.976Z,71.87
2018-12-01T21:37:26.440Z,72.05
2018-12-01T21:39:55.905Z,72.09
2018-12-01T21:42:25.565Z,72.17
2018-12-01T21:44:55.203Z,72.56
2018-12-01T21:47:24.596Z,72.35
2018-12-01T21:49:53.999Z,72.29
2018-12-01T21:52:23.825Z,72.96
2018-12-01T21:54:53.236Z,73.65
2018-12-01T21:57:22.653Z,73.44
2018-12-01T21:59:52.072Z,73.24
2018-12-01T22:02:21.498Z,73.15
2018-12-01T22:04:50.947Z,73.03
2018-12-01T22:07:20.305Z,73.53
2018-12-01T22:09:49.661Z,73.64
2018-12-01T22:12:19.124Z,73.79
2018-12-01T22:14:48.549Z,73.52
2018-12-01T22:17:18.161Z,73.22
2018-12-01T22:19:47.496Z,72.56
2018-12-01T22:22:17.019Z,72.81
2018-12-01T22:24:46.326Z,72.28
2018-12-01T22:27:15.693Z,73.05
2018-12-01T22:29:45.088Z,72.62
2018-12-01T22:32:14.439Z,73.17
2018-12-01T22:34:43.751Z,73.14
2018-12-01T22:37:13.340Z,72.95
2018-12-01T22:39:42.919Z,72.96
2018-12-01T22:42:12.290Z,72.31
2018-12-01T22:44:41.599Z,72.93
2018-12-01T22:47:10.855Z,73.04
2018-12-01T22:49:40.199Z,73.30
2018-12-01T22:52:09.616Z,72.87
2018-12-01T22:54:39.078Z,72.53
2018-12-01T22:57:08.431Z,72.28
2018-12-01T22:59:38.243Z,71.17
2018-12-01T23:02:07.620Z,71.84
2018-12-01T23:04:38.856Z,71.67
2018-12-01T23:07:08.157Z,73.18
2018-12-01T23:09:37.422Z,73.52
2018-12-01T23:12:06.924Z,73.87
2018-12-01T23:14:36.213Z,74.92
2018-12-01T23:17:05.890Z,75.22
2018-12-01T23:19:35.543Z,74.84
2018-12-01T23:22:04.974Z,75.42
2018-12-01T23:24:34.407Z,76.12
2018-12-01T23:27:03.768Z,77.63
2018-12-01T23:29:33.152Z,78.21
2018-12-01T23:32:02.440Z,78.69
2018-12-01T23:34:31.830Z,78.32
2018-12-01T23:37:01.122Z,78.06
2018-12-01T23:39:30.604Z,79.07
2018-12-01T23:41:59.989Z,79.68
2018-12-01T23:44:30.402Z,80.53
2018-12-01T23:46:59.660Z,80.91
2018-12-01T23:49:28.970Z,81.06
2018-12-01T23:51:58.260Z,81.86
2018-12-01T23:54:27.514Z,81.85
2018-12-01T23:56:56.796Z,82.32
2018-12-01T23:59:26.069Z,82.60
